Time;durP1;ratioP1;P1;durP2;ratioP2;P2;SDS_P1;SDS_P2;PMS_P1;PMS_P2;Temp;Humidity;BMP_temperature;BMP_pressure;BME280_temperature;BME280_humidity;BME280_pressure;Samples;Min_cycle;Max_cycle;Signal;HPM_P1;HPM_P2
2023/07/10 08:37:38;;;;;;;4.82;2.53;;;27.70;92.90;;;;;;6281257;22;20212;-80
2023/07/10 08:45:13;;;;;;;7.25;2.90;;;28.00;88.70;;;;;;6289247;22;20204;-79
2023/07/10 08:48:24;;;;;;;4.28;2.70;;;28.20;89.30;;;;;;6148535;23;20180;-79
2023/07/10 08:51:22;;;;;;;6.40;2.70;;;28.00;88.10;;;;;;6123465;23;20674;-79
2023/07/10 08:54:18;;;;;;;6.82;2.63;;;27.70;89.20;;;;;;6126052;23;20214;-79
2023/07/10 08:57:30;;;;;;;5.38;2.70;;;28.60;87.00;;;;;;6104712;23;20272;-79
2023/07/10 09:00:19;;;;;;;3.30;2.50;;;29.20;84.20;;;;;;6104291;23;20632;-79
2023/07/10 09:03:39;;;;;;;4.45;2.70;;;29.10;83.90;;;;;;6102729;23;20180;-80
2023/07/10 09:06:50;;;;;;;5.53;2.63;;;29.60;83.30;;;;;;6095106;23;20231;-80
2023/07/10 09:09:40;;;;;;;5.53;2.60;;;28.60;84.20;;;;;;6094952;23;20193;-79
2023/07/10 09:12:37;;;;;;;5.10;2.83;;;28.50;86.50;;;;;;6093512;23;20176;-78
2023/07/10 09:15:52;;;;;;;4.57;2.70;;;28.70;86.30;;;;;;6076882;23;20443;-80
2023/07/10 09:18:58;;;;;;;3.67;2.42;;;29.20;85.40;;;;;;6070768;23;20188;-78
2023/07/10 09:21:33;;;;;;;4.25;2.67;;;28.80;84.50;;;;;;6037741;23;20181;-79
2023/07/10 09:24:22;;;;;;;6.22;2.33;;;28.60;85.20;;;;;;6099418;23;20225;-77
2023/07/10 09:27:10;;;;;;;5.65;2.55;;;28.70;85.30;;;;;;6132454;23;20519;-78
2023/07/10 09:30:06;;;;;;;5.32;2.53;;;28.80;83.80;;;;;;6130296;23;20191;-78
2023/07/10 09:33:23;;;;;;;4.03;2.58;;;29.40;83.00;;;;;;6135475;23;20762;-78
2023/07/10 09:36:20;;;;;;;3.08;2.40;;;29.30;81.70;;;;;;6153884;23;20167;-78
2023/07/10 09:39:19;;;;;;;3.90;2.47;;;29.80;80.60;;;;;;6133342;23;20200;-76
2023/07/10 09:41:56;;;;;;;3.20;2.35;;;30.10;79.30;;;;;;6127251;23;20175;-78
2023/07/10 09:45:00;;;;;;;3.33;2.40;;;30.00;76.40;;;;;;6130399;23;20212;-77
2023/07/10 09:47:57;;;;;;;3.85;2.45;;;29.90;77.10;;;;;;6094373;23;20173;-80
2023/07/10 09:50:49;;;;;;;3.22;2.42;;;30.10;77.00;;;;;;6124347;23;20283;-78
2023/07/10 09:53:45;;;;;;;4.00;2.28;;;30.20;76.20;;;;;;6119281;23;20200;-80
2023/07/10 09:56:27;;;;;;;9.90;2.72;;;30.40;74.30;;;;;;6112411;23;20307;-80
2023/07/10 09:59:43;;;;;;;3.28;2.30;;;30.50;73.90;;;;;;6188787;23;20198;-78
2023/07/10 10:02:42;;;;;;;3.17;2.13;;;30.60;72.70;;;;;;6189104;23;20175;-79
2023/07/10 10:05:48;;;;;;;6.20;2.40;;;30.70;71.90;;;;;;6191278;23;20202;-80
2023/07/10 10:08:45;;;;;;;13.55;2.45;;;30.90;71.90;;;;;;6186078;23;20179;-81
2023/07/10 10:11:45;;;;;;;3.60;2.00;;;32.00;69.30;;;;;;6189916;23;20588;-79
2023/07/10 10:14:47;;;;;;;3.72;2.30;;;31.30;66.50;;;;;;6097005;23;20208;-81
2023/07/10 10:17:39;;;;;;;3.50;2.10;;;30.70;68.30;;;;;;6076535;23;20180;-77
2023/07/10 10:20:33;;;;;;;2.40;1.77;;;31.40;67.00;;;;;;6075895;23;20196;-78
2023/07/10 10:23:29;;;;;;;6.43;2.17;;;31.70;63.70;;;;;;6099230;23;20166;-81
2023/07/10 10:26:23;;;;;;;2.33;1.92;;;32.10;62.90;;;;;;6075479;23;20249;-79
2023/07/10 10:29:12;;;;;;;5.43;2.30;;;32.20;63.40;;;;;;6074553;23;20321;-79
2023/07/10 10:31:51;;;;;;;3.72;1.90;;;32.30;63.60;;;;;;6120912;23;20224;-80
2023/07/10 10:34:59;;;;;;;4.55;2.20;;;32.70;62.60;;;;;;6096147;23;20212;-78
2023/07/10 10:38:36;;;;;;;5.82;2.40;;;32.00;61.50;;;;;;6072759;23;20716;-79
2023/07/10 10:45:55;;;;;;;4.90;1.80;;;33.20;57.40;;;;;;6147019;23;20662;-79
2023/07/10 10:48:48;;;;;;;4.28;1.70;;;33.70;56.50;;;;;;6045232;23;20177;-79
2023/07/10 10:51:34;;;;;;;2.88;1.83;;;34.10;55.40;;;;;;6225222;22;20229;-80
2023/07/10 10:54:28;;;;;;;3.30;1.67;;;34.20;54.90;;;;;;6212185;23;20195;-82
2023/07/10 10:57:14;;;;;;;3.33;1.73;;;34.50;54.60;;;;;;6215184;23;20167;-82
2023/07/10 11:00:23;;;;;;;15.20;3.63;;;34.70;54.30;;;;;;6190978;23;20249;-82
2023/07/10 11:03:25;;;;;;;3.50;1.85;;;34.80;53.20;;;;;;6231382;22;20206;-80
2023/07/10 11:07:03;;;;;;;2.70;1.80;;;34.80;53.50;;;;;;6160685;23;20230;-82
2023/07/10 11:10:31;;;;;;;1.85;1.60;;;35.10;52.00;;;;;;6157187;23;20269;-82
2023/07/10 11:13:54;;;;;;;2.42;1.55;;;35.20;50.90;;;;;;6160376;23;20167;-81
2023/07/10 11:16:55;;;;;;;2.10;1.70;;;36.10;49.80;;;;;;6178737;23;20258;-81
2023/07/10 11:20:28;;;;;;;1.92;1.50;;;36.40;48.40;;;;;;6219184;22;20268;-80
2023/07/10 11:23:38;;;;;;;3.10;1.77;;;36.10;47.30;;;;;;6222118;23;20174;-80
2023/07/10 11:26:15;;;;;;;3.50;1.58;;;35.70;48.20;;;;;;6272832;22;20231;-79
2023/07/10 11:29:35;;;;;;;2.38;1.70;;;36.00;47.00;;;;;;6223232;22;20256;-80
2023/07/10 11:32:52;;;;;;;4.57;1.50;;;36.00;46.70;;;;;;6246428;22;20184;-80
2023/07/10 11:36:35;;;;;;;2.63;1.60;;;36.00;47.10;;;;;;6223166;22;20202;-81
2023/07/10 11:39:32;;;;;;;3.70;1.83;;;36.30;46.10;;;;;;6222446;22;20251;-79
2023/07/10 11:42:21;;;;;;;2.28;1.42;;;37.40;45.30;;;;;;6219729;22;20261;-79
2023/07/10 11:45:09;;;;;;;3.03;1.90;;;37.70;44.30;;;;;;6249601;22;20192;-79
2023/07/10 11:47:52;;;;;;;1.90;1.70;;;37.40;44.40;;;;;;6244141;22;20173;-80
2023/07/10 11:50:57;;;;;;;2.28;1.58;;;37.30;44.70;;;;;;6212503;22;20190;-81
2023/07/10 11:53:47;;;;;;;1.55;1.45;;;37.90;44.30;;;;;;6224412;22;20222;-81
2023/07/10 11:57:22;;;;;;;2.47;1.70;;;37.90;43.10;;;;;;6218004;22;20227;-79
2023/07/10 12:00:15;;;;;;;2.38;1.60;;;37.80;42.90;;;;;;6235468;22;20540;-80
2023/07/10 12:02:57;;;;;;;2.00;1.60;;;37.90;43.00;;;;;;6221705;22;20173;-80
2023/07/10 12:08:23;;;;;;;3.95;1.40;;;36.80;43.10;;;;;;6260137;22;20211;-80
2023/07/10 12:11:07;;;;;;;2.65;1.67;;;37.40;42.80;;;;;;6216989;23;20221;-83
2023/07/10 12:14:30;;;;;;;3.58;1.60;;;36.60;42.90;;;;;;6200631;23;20169;-84
2023/07/10 12:21:06;;;;;;;2.80;1.70;;;36.30;44.60;;;;;;6229362;23;20656;-82
2023/07/10 12:24:29;;;;;;;3.40;1.70;;;36.30;45.10;;;;;;6223180;22;20260;-78
2023/07/10 12:27:32;;;;;;;4.05;1.75;;;35.80;44.80;;;;;;6213049;23;20240;-81
2023/07/10 12:34:35;;;;;;;2.72;1.80;;;35.90;45.60;;;;;;6228477;22;20202;-81
2023/07/10 12:37:43;;;;;;;3.83;1.67;;;35.00;45.50;;;;;;6198385;23;20170;-80
2023/07/10 12:40:45;;;;;;;3.03;1.90;;;34.60;46.80;;;;;;6153026;23;20200;-82
2023/07/10 12:43:26;;;;;;;3.85;1.70;;;34.40;46.90;;;;;;6132128;23;20171;-83
2023/07/10 12:46:29;;;;;;;6.03;2.10;;;34.10;48.00;;;;;;6238778;22;20210;-82
2023/07/10 12:49:36;;;;;;;6.05;1.92;;;33.90;47.60;;;;;;6218450;23;20194;-82
2023/07/10 12:53:14;;;;;;;2.95;1.60;;;34.00;47.30;;;;;;6215989;23;20389;-82
2023/07/10 12:56:10;;;;;;;4.35;1.80;;;34.10;47.90;;;;;;6234663;22;20284;-81
2023/07/10 12:59:24;;;;;;;1.52;1.42;;;33.80;46.00;;;;;;6216135;23;20265;-81
2023/07/10 13:02:24;;;;;;;2.00;1.65;;;34.00;46.50;;;;;;6184568;23;20229;-81
2023/07/10 13:05:24;;;;;;;1.48;1.30;;;34.10;46.20;;;;;;6191419;23;20257;-79
2023/07/10 13:08:57;;;;;;;7.63;2.53;;;33.90;46.40;;;;;;6195273;23;20233;-81
2023/07/10 13:12:45;;;;;;;3.95;1.95;;;34.10;46.40;;;;;;6209926;23;20217;-79
2023/07/10 13:15:51;;;;;;;3.25;2.50;;;33.80;46.60;;;;;;6147306;23;20204;-79
2023/07/10 13:18:56;;;;;;;3.15;1.85;;;33.60;46.90;;;;;;6144863;23;20582;-78
2023/07/10 13:21:48;;;;;;;2.47;1.80;;;33.70;48.20;;;;;;6101358;23;20168;-79
2023/07/10 13:28:32;;;;;;;3.50;1.70;;;33.40;47.10;;;;;;6265717;22;20213;-80
2023/07/10 13:31:35;;;;;;;2.92;1.80;;;34.10;46.00;;;;;;6253777;22;20205;-81
2023/07/10 13:37:57;;;;;;;2.38;1.80;;;33.70;47.00;;;;;;6216496;22;20212;-81
2023/07/10 13:41:27;;;;;;;3.08;1.80;;;34.10;46.20;;;;;;6220080;23;20162;-81
2023/07/10 13:44:44;;;;;;;1.90;1.67;;;34.20;45.40;;;;;;6217069;23;20213;-80
2023/07/10 13:50:58;;;;;;;2.72;1.80;;;36.00;44.80;;;;;;6234604;22;20613;-80
2023/07/10 14:01:14;;;;;;;2.83;1.70;;;37.90;42.50;;;;;;6263982;22;20205;-79
2023/07/10 14:08:07;;;;;;;1.85;1.55;;;37.60;42.00;;;;;;6161420;23;20315;-78
2023/07/10 14:11:38;;;;;;;;;;;;;;;;;;;;;
2023/07/10 14:14:57;;;;;;;3.40;1.75;;;37.70;42.10;;;;;;6235459;22;20237;-81
2023/07/10 14:22:42;;;;;;;2.63;2.00;;;37.90;41.60;;;;;;5005706;28;20234;-80
2023/07/10 14:35:25;;;;;;;1.70;1.52;;;35.90;42.80;;;;;;4981105;28;20369;-81
2023/07/10 14:38:25;;;;;;;1.70;1.35;;;36.40;43.30;;;;;;5110572;23;20317;-80
2023/07/10 14:45:23;;;;;;;2.40;1.67;;;36.90;42.10;;;;;;5015942;22;20230;-79
2023/07/10 14:52:08;;;;;;;2.15;1.67;;;36.40;42.30;;;;;;4989398;28;20214;-82
2023/07/10 14:55:03;;;;;;;2.22;1.83;;;36.20;42.30;;;;;;4971619;28;20272;-82
2023/07/10 14:58:13;;;;;;;4.32;1.63;;;35.40;42.80;;;;;;4988372;28;20229;-80
2023/07/10 15:01:01;;;;;;;3.67;1.90;;;35.80;43.60;;;;;;5071641;22;20245;-80
2023/07/10 15:04:11;;;;;;;1.85;1.70;;;36.40;43.30;;;;;;4948230;28;20230;-79
2023/07/10 15:07:18;;;;;;;3.15;1.80;;;36.50;41.90;;;;;;5050388;23;20237;-81
2023/07/10 15:09:49;;;;;;;3.20;1.88;;;35.20;43.10;;;;;;5053094;28;20214;-80
2023/07/10 15:12:25;;;;;;;1.95;1.60;;;35.20;44.10;;;;;;5047355;28;20292;-80
2023/07/10 15:15:04;;;;;;;2.17;1.85;;;36.00;43.90;;;;;;4987976;28;20303;-80
2023/07/10 15:20:58;;;;;;;2.80;1.75;;;37.90;42.20;;;;;;4988422;28;20220;-81
2023/07/10 15:23:43;;;;;;;2.20;1.60;;;38.90;41.50;;;;;;4988387;28;20255;-79
2023/07/10 15:26:28;;;;;;;2.17;1.60;;;39.60;40.90;;;;;;4969460;28;20216;-80
2023/07/10 15:29:47;;;;;;;4.57;1.73;;;39.80;40.50;;;;;;4977942;28;20228;-78
2023/07/10 15:32:42;;;;;;;1.63;1.45;;;40.20;39.90;;;;;;4978086;28;20208;-80
2023/07/10 15:35:17;;;;;;;1.83;1.52;;;40.20;39.30;;;;;;4973107;28;20252;-81
2023/07/10 15:37:54;;;;;;;3.60;1.60;;;39.60;39.70;;;;;;4976601;28;20361;-79
2023/07/10 15:40:28;;;;;;;1.80;1.40;;;38.90;39.30;;;;;;4991424;28;20229;-79
2023/07/10 15:43:11;;;;;;;2.25;1.33;;;38.90;39.60;;;;;;4959293;28;20292;-79
2023/07/10 15:49:33;;;;;;;3.83;1.55;;;38.00;40.70;;;;;;4936702;29;20229;-79
2023/07/10 15:52:18;;;;;;;2.67;1.50;;;37.90;40.00;;;;;;4995456;28;20226;-79
2023/07/10 15:55:18;;;;;;;2.60;1.60;;;37.60;40.30;;;;;;4997964;28;20219;-79
2023/07/10 15:57:56;;;;;;;3.60;2.00;;;36.80;41.40;;;;;;4998532;28;20227;-79
2023/07/10 16:00:40;;;;;;;1.80;1.55;;;36.00;42.40;;;;;;4998937;28;20236;-80
2023/07/10 16:03:26;;;;;;;3.25;1.60;;;35.20;44.10;;;;;;4999724;28;20203;-77
2023/07/10 16:06:05;;;;;;;2.47;1.73;;;34.70;45.40;;;;;;4996726;28;20262;-79
2023/07/10 16:08:38;;;;;;;3.22;1.55;;;34.30;45.80;;;;;;5013462;28;20195;-78
2023/07/10 16:11:40;;;;;;;3.00;1.80;;;33.80;46.10;;;;;;5068828;28;20282;-78
2023/07/10 16:15:03;;;;;;;2.99;1.49;;;32.70;46.60;;;;;;4877044;28;38304273;-82
2023/07/10 16:27:40;;;;;;;2.33;1.80;;;31.10;50.30;;;;;;5224368;23;20248;-79
2023/07/10 16:33:34;;;;;;;2.67;1.60;;;30.70;50.30;;;;;;4973565;23;20241;-79
2023/07/10 16:36:30;;;;;;;2.28;1.70;;;30.30;50.10;;;;;;4967992;28;20701;-81
